createdAt,value
2022-11-29T00:02:02.528Z,101355.47
2022-11-29T00:04:32.286Z,101357.16
2022-11-29T00:07:02.020Z,101356.25
2022-11-29T00:09:31.765Z,101348.44
2022-11-29T00:12:13.920Z,101347.47
2022-11-29T00:14:44.567Z,101353.56
2022-11-29T00:17:17.035Z,101357.00
2022-11-29T00:19:46.855Z,101357.84
2022-11-29T00:22:16.551Z,101367.50
2022-11-29T00:24:46.454Z,101368.25
2022-11-29T00:27:16.328Z,101369.09
2022-11-29T00:29:47.186Z,101369.84
2022-11-29T00:32:19.863Z,101377.63
2022-11-29T00:34:49.552Z,101366.09
2022-11-29T00:37:19.279Z,101366.88
2022-11-29T00:39:48.984Z,101379.09
2022-11-29T00:42:18.664Z,101376.47
2022-11-29T00:44:48.377Z,101378.16
2022-11-29T00:47:20.823Z,101375.63
2022-11-29T00:49:50.582Z,101373.09
2022-11-29T00:52:20.279Z,101373.22
2022-11-29T00:54:50.028Z,101375.91
2022-11-29T00:57:19.739Z,101368.88
2022-11-29T00:59:49.457Z,101379.25
2022-11-29T01:02:21.864Z,101374.78
2022-11-29T01:04:51.609Z,101373.84
2022-11-29T01:07:21.389Z,101384.34
2022-11-29T01:09:51.370Z,101379.84
2022-11-29T01:12:21.084Z,101382.41
2022-11-29T01:14:50.904Z,101383.00
2022-11-29T01:17:23.311Z,101381.94
2022-11-29T01:19:53.024Z,101381.81
2022-11-29T01:22:22.784Z,101380.91
2022-11-29T01:24:53.883Z,101389.63
2022-11-29T01:27:23.627Z,101390.34
2022-11-29T01:29:53.336Z,101387.53
2022-11-29T01:32:25.735Z,101381.22
2022-11-29T01:34:55.567Z,101393.28
2022-11-29T01:37:25.323Z,101383.56
2022-11-29T01:39:55.072Z,101396.53
2022-11-29T01:42:24.888Z,101397.34
2022-11-29T01:45:16.516Z,101397.28
2022-11-29T01:47:50.008Z,101395.47
2022-11-29T01:50:20.341Z,101394.41
2022-11-29T01:52:51.000Z,101401.31
2022-11-29T01:55:21.543Z,101395.09
2022-11-29T01:57:52.113Z,101393.28
2022-11-29T02:00:22.815Z,101391.56
2022-11-29T02:03:00.159Z,101398.53
2022-11-29T02:05:30.856Z,101402.06
2022-11-29T02:08:02.822Z,101397.72
2022-11-29T02:10:47.293Z,101398.53
2022-11-29T02:13:26.735Z,101400.19
2022-11-29T02:16:06.797Z,101401.00
2022-11-29T02:18:51.288Z,101404.44
2022-11-29T02:21:32.525Z,101398.22
2022-11-29T02:24:18.340Z,101407.72
2022-11-29T02:27:09.875Z,101405.78
2022-11-29T02:30:11.994Z,101406.44
2022-11-29T02:33:20.514Z,101405.47
2022-11-29T02:36:26.587Z,101403.53
2022-11-29T02:39:31.759Z,101401.72
2022-11-29T02:42:55.724Z,101413.13
2022-11-29T02:45:53.485Z,101415.75
2022-11-29T02:48:50.974Z,101419.13
2022-11-29T02:51:28.761Z,101419.13
2022-11-29T02:54:06.280Z,101424.34
2022-11-29T02:56:43.569Z,101420.91
2022-11-29T02:59:21.458Z,101427.94
2022-11-29T03:01:58.775Z,101421.78
2022-11-29T03:04:36.634Z,101429.75
2022-11-29T03:07:16.389Z,101431.53
2022-11-29T03:09:52.265Z,101433.34
2022-11-29T03:12:29.952Z,101438.66
2022-11-29T03:15:06.718Z,101440.53
2022-11-29T03:17:49.349Z,101444.16
2022-11-29T03:20:31.532Z,101438.06
2022-11-29T03:23:19.089Z,101447.75
2022-11-29T03:25:55.304Z,101452.25
2022-11-29T03:28:33.235Z,101449.53
2022-11-29T03:31:10.151Z,101459.22
2022-11-29T03:33:49.008Z,101450.44
2022-11-29T03:36:30.528Z,101450.38
2022-11-29T03:39:07.410Z,101454.78
2022-11-29T03:41:44.676Z,101460.03
2022-11-29T03:44:19.212Z,101457.41
2022-11-29T03:46:58.932Z,101472.25
2022-11-29T03:49:35.136Z,101480.03
2022-11-29T03:52:13.277Z,101472.16
2022-11-29T03:54:56.503Z,101471.25
2022-11-29T03:57:34.896Z,101472.16
2022-11-29T04:00:09.711Z,101467.00
2022-11-29T04:03:09.450Z,101477.59
2022-11-29T04:06:02.796Z,101476.66
2022-11-29T04:09:09.596Z,101477.75
2022-11-29T04:12:05.355Z,101484.84
2022-11-29T04:15:10.517Z,101480.50
2022-11-29T04:18:31.464Z,101483.22
2022-11-29T04:21:34.313Z,101484.91
2022-11-29T04:24:46.026Z,101483.22
2022-11-29T04:27:48.819Z,101495.41
2022-11-29T04:30:27.159Z,101484.03
2022-11-29T04:33:26.778Z,101490.16
2022-11-29T04:36:16.196Z,101482.97
2022-11-29T04:39:12.618Z,101488.88
2022-11-29T04:42:07.264Z,101485.94
2022-11-29T04:44:53.251Z,101491.78
2022-11-29T04:47:53.936Z,101503.00
2022-11-29T04:50:36.132Z,101494.16
2022-11-29T04:53:38.992Z,101509.00
2022-11-29T04:56:18.038Z,101507.19
2022-11-29T04:58:57.898Z,101515.00
2022-11-29T05:01:35.302Z,101511.19
2022-11-29T05:04:17.369Z,101517.25
2022-11-29T05:06:55.952Z,101519.72
2022-11-29T05:09:35.044Z,101518.84
2022-11-29T05:12:15.499Z,101530.22
2022-11-29T05:14:58.168Z,101530.22
2022-11-29T05:17:35.532Z,101530.22
2022-11-29T05:20:25.958Z,101537.25
2022-11-29T05:23:15.307Z,101532.84
2022-11-29T05:25:53.264Z,101541.50
2022-11-29T05:28:28.564Z,101532.75
2022-11-29T05:31:21.865Z,101541.59
2022-11-29T05:34:24.569Z,101539.81
2022-11-29T05:37:03.760Z,101552.81
2022-11-29T05:39:46.158Z,101556.44
2022-11-29T05:42:41.274Z,101556.50
2022-11-29T05:45:18.163Z,101561.69
2022-11-29T05:47:55.479Z,101565.28
2022-11-29T05:50:33.628Z,101556.44
2022-11-29T05:53:19.234Z,101566.03
2022-11-29T05:55:58.556Z,101566.75
2022-11-29T05:58:35.536Z,101564.03
2022-11-29T06:01:17.228Z,101560.53
2022-11-29T06:03:54.634Z,101563.84
2022-11-29T06:06:34.201Z,101564.75
2022-11-29T06:09:19.121Z,101569.28
2022-11-29T06:11:53.528Z,101576.25
2022-11-29T06:14:44.632Z,101576.25
2022-11-29T06:17:42.103Z,101574.63
2022-11-29T06:20:44.248Z,101576.56
2022-11-29T06:23:36.668Z,101581.00
2022-11-29T06:26:22.884Z,101587.16
2022-11-29T06:29:05.115Z,101584.44
2022-11-29T06:31:39.045Z,101592.22
2022-11-29T06:34:19.037Z,101597.38
2022-11-29T06:36:53.810Z,101600.75
2022-11-29T06:39:24.472Z,101603.22
2022-11-29T06:41:56.878Z,101606.69
2022-11-29T06:44:27.265Z,101605.09
2022-11-29T06:47:06.413Z,101599.91
2022-11-29T06:49:44.064Z,101607.78
2022-11-29T06:52:25.868Z,101606.88
2022-11-29T06:55:07.876Z,101607.72
2022-11-29T06:57:56.767Z,101605.97
2022-11-29T07:00:29.534Z,101614.75
2022-11-29T07:03:18.827Z,101614.91
2022-11-29T07:05:49.474Z,101616.72
2022-11-29T07:08:21.664Z,101614.91
2022-11-29T07:10:54.210Z,101619.34
2022-11-29T07:13:27.539Z,101617.72
2022-11-29T07:16:04.587Z,101617.72
2022-11-29T07:18:42.696Z,101618.50
2022-11-29T07:21:24.217Z,101619.41
2022-11-29T07:24:03.403Z,101612.38
2022-11-29T07:26:41.012Z,101613.38
2022-11-29T07:29:26.448Z,101617.88
2022-11-29T07:32:06.267Z,101623.28
2022-11-29T07:34:43.305Z,101622.53
2022-11-29T07:37:22.393Z,101624.53
2022-11-29T07:40:02.656Z,101626.56
2022-11-29T07:42:40.727Z,101624.09
2022-11-29T07:45:21.928Z,101622.63
2022-11-29T07:47:51.859Z,101628.03
2022-11-29T07:50:21.765Z,101629.13
2022-11-29T07:52:52.124Z,101629.28
2022-11-29T07:55:24.497Z,101638.22
2022-11-29T07:57:55.084Z,101634.88
2022-11-29T08:00:27.903Z,101642.94
2022-11-29T08:03:06.404Z,101645.66
2022-11-29T08:05:41.438Z,101646.66
2022-11-29T08:08:25.555Z,101646.91
2022-11-29T08:10:56.824Z,101642.56
2022-11-29T08:13:26.859Z,101649.84
2022-11-29T08:15:59.319Z,101647.38
2022-11-29T08:18:29.058Z,101652.78
2022-11-29T08:20:58.769Z,101652.22
2022-11-29T08:23:28.500Z,101653.25
2022-11-29T08:26:02.644Z,101652.69
2022-11-29T08:28:35.398Z,101670.41
2022-11-29T08:31:10.739Z,101660.13
2022-11-29T08:33:42.507Z,101670.88
2022-11-29T08:36:14.794Z,101663.22
2022-11-29T08:38:44.530Z,101673.16
2022-11-29T08:41:17.100Z,101679.53
2022-11-29T08:43:47.836Z,101664.78
2022-11-29T08:46:20.260Z,101664.97
2022-11-29T08:48:50.129Z,101676.56
2022-11-29T08:51:19.960Z,101676.81
2022-11-29T08:53:51.745Z,101678.75
2022-11-29T08:59:12.496Z,101682.81
2022-11-29T09:01:45.384Z,101690.09
2022-11-29T09:04:17.289Z,101691.22
2022-11-29T09:06:49.748Z,101695.66
2022-11-29T09:09:20.224Z,101687.75
2022-11-29T09:11:50.126Z,101698.50
2022-11-29T09:14:22.616Z,101705.66
2022-11-29T09:16:58.053Z,101710.16
2022-11-29T09:19:27.994Z,101715.72
2022-11-29T09:21:57.991Z,101711.50
2022-11-29T09:24:27.890Z,101712.59
2022-11-29T09:26:58.237Z,101718.88
2022-11-29T09:29:28.136Z,101724.25
2022-11-29T09:32:00.758Z,101728.69
2022-11-29T09:34:30.724Z,101734.78
2022-11-29T09:37:00.778Z,101737.47
2022-11-29T09:39:30.815Z,101738.44
2022-11-29T09:42:15.161Z,101742.94
2022-11-29T09:44:56.967Z,101750.09
2022-11-29T09:47:46.654Z,101752.84
2022-11-29T09:50:29.375Z,101760.00
2022-11-29T09:53:12.675Z,101756.38
2022-11-29T09:55:56.147Z,101764.50
2022-11-29T09:58:29.192Z,101768.88
2022-11-29T10:01:03.598Z,101768.03
2022-11-29T10:03:41.289Z,101772.34
2022-11-29T10:06:20.452Z,101763.53
2022-11-29T10:08:55.872Z,101766.25
2022-11-29T10:11:31.143Z,101767.88
2022-11-29T10:14:04.273Z,101768.63
2022-11-29T10:16:43.438Z,101759.84
2022-11-29T10:19:24.915Z,101762.25
2022-11-29T10:22:02.538Z,101758.72
2022-11-29T10:24:34.371Z,101762.09
2022-11-29T10:27:04.545Z,101762.84
2022-11-29T10:29:34.479Z,101759.38
2022-11-29T10:32:10.176Z,101758.59
2022-11-29T10:34:45.435Z,101768.25
2022-11-29T10:37:19.605Z,101772.72
2022-11-29T10:39:51.910Z,101772.72
2022-11-29T10:42:36.118Z,101771.59
2022-11-29T10:45:07.534Z,101774.09
2022-11-29T10:47:37.337Z,101770.56
2022-11-29T10:50:15.941Z,101773.28
2022-11-29T10:52:45.724Z,101779.47
2022-11-29T10:55:17.785Z,101773.47
2022-11-29T10:58:28.621Z,101779.63
2022-11-29T11:01:01.261Z,101783.97
2022-11-29T11:03:40.292Z,101784.88
2022-11-29T11:06:16.544Z,101785.78
2022-11-29T11:08:49.820Z,101783.97
2022-11-29T11:11:29.146Z,101786.75
2022-11-29T11:14:04.530Z,101793.75
2022-11-29T11:16:37.591Z,101790.41
2022-11-29T11:19:33.176Z,101793.19
2022-11-29T11:22:07.288Z,101794.03
2022-11-29T11:24:40.852Z,101796.00
2022-11-29T11:27:11.083Z,101792.53
2022-11-29T11:29:44.215Z,101795.06
2022-11-29T11:32:20.856Z,101795.91
2022-11-29T11:34:55.554Z,101802.81
2022-11-29T11:37:30.731Z,101801.63
2022-11-29T11:40:04.220Z,101803.28
2022-11-29T11:42:42.930Z,101802.44
2022-11-29T11:45:34.343Z,101799.75
2022-11-29T11:48:08.277Z,101806.72
2022-11-29T11:50:46.440Z,101807.38
2022-11-29T11:53:26.830Z,101811.66
2022-11-29T11:56:00.734Z,101808.72
2022-11-29T11:58:42.771Z,101819.06
2022-11-29T12:01:20.985Z,101809.28
2022-11-29T12:04:04.846Z,101816.03
2022-11-29T12:07:51.969Z,101820.09
2022-11-29T12:10:27.570Z,101820.59
2022-11-29T12:13:00.431Z,101824.63
2022-11-29T12:15:38.688Z,101836.53
2022-11-29T12:18:13.637Z,101828.47
2022-11-29T12:20:49.892Z,101835.31
2022-11-29T12:26:55.913Z,101850.19
2022-11-29T12:29:22.470Z,101863.31
2022-11-29T12:32:07.137Z,101851.81
2022-11-29T12:34:51.854Z,101853.59
2022-11-29T12:37:28.705Z,101861.47
2022-11-29T12:40:04.185Z,101859.53
2022-11-29T12:42:48.854Z,101869.63
2022-11-29T12:45:37.700Z,101863.03
2022-11-29T12:48:20.005Z,101869.69
2022-11-29T12:51:01.893Z,101871.34
2022-11-29T12:54:00.504Z,101874.75
2022-11-29T12:56:35.991Z,101872.81
2022-11-29T12:59:33.782Z,101875.91
2022-11-29T13:02:33.872Z,101886.25
2022-11-29T13:05:13.096Z,101886.81
2022-11-29T13:07:54.572Z,101888.69
2022-11-29T13:10:36.320Z,101893.38
2022-11-29T13:13:18.125Z,101890.91
2022-11-29T13:15:58.008Z,101892.91
2022-11-29T13:18:35.620Z,101891.97
2022-11-29T13:21:13.585Z,101892.97
2022-11-29T13:24:08.831Z,101892.19
2022-11-29T13:26:40.873Z,101887.81
2022-11-29T13:29:17.148Z,101888.56
2022-11-29T13:31:50.400Z,101890.28
2022-11-29T13:34:26.137Z,101898.22
2022-11-29T13:37:08.416Z,101909.47
2022-11-29T13:39:53.788Z,101900.53
2022-11-29T13:42:31.787Z,101903.78
2022-11-29T13:45:05.956Z,101902.00
2022-11-29T13:47:54.426Z,101904.78
2022-11-29T13:50:41.245Z,101910.13
2022-11-29T13:53:17.781Z,101910.03
2022-11-29T13:55:50.482Z,101914.22
2022-11-29T13:58:37.143Z,101916.84
2022-11-29T14:01:13.045Z,101915.19
2022-11-29T14:03:46.562Z,101913.13
2022-11-29T14:06:21.263Z,101922.00
2022-11-29T14:09:21.341Z,101918.47
2022-11-29T14:11:53.958Z,101925.44
2022-11-29T14:14:31.576Z,101920.84
2022-11-29T14:17:04.128Z,101919.78
2022-11-29T14:19:38.365Z,101921.47
2022-11-29T14:22:35.430Z,101918.78
2022-11-29T14:25:49.310Z,101921.66
2022-11-29T14:28:33.040Z,101924.09
2022-11-29T14:31:04.388Z,101938.22
2022-11-29T14:33:46.641Z,101932.22
2022-11-29T14:36:32.748Z,101937.66
2022-11-29T14:39:16.289Z,101940.47
2022-11-29T14:41:58.205Z,101936.84
2022-11-29T14:44:30.340Z,101942.91
2022-11-29T14:47:05.919Z,101949.88
2022-11-29T14:49:43.479Z,101953.34
2022-11-29T14:52:25.736Z,101953.97
2022-11-29T14:54:59.068Z,101967.03
2022-11-29T14:58:10.096Z,101968.44
2022-11-29T15:00:54.949Z,101973.63
2022-11-29T15:03:33.674Z,101975.34
2022-11-29T15:06:13.303Z,101976.25
2022-11-29T15:08:53.589Z,101979.88
2022-11-29T15:11:34.682Z,101983.28
2022-11-29T15:14:08.763Z,101979.66
2022-11-29T15:16:58.640Z,101977.03
2022-11-29T15:19:58.852Z,101981.31
2022-11-29T15:22:31.678Z,101985.63
2022-11-29T15:25:22.586Z,101988.19
2022-11-29T15:27:54.472Z,101992.34
2022-11-29T15:30:31.921Z,101989.66
2022-11-29T15:33:03.752Z,101996.53
2022-11-29T15:35:35.617Z,101994.00
2022-11-29T15:38:06.121Z,101995.78
2022-11-29T15:40:41.089Z,101994.97
2022-11-29T15:43:20.075Z,101998.31
2022-11-29T15:45:51.448Z,102000.94
2022-11-29T15:48:27.110Z,102000.88
2022-11-29T15:51:04.459Z,101999.75
2022-11-29T15:53:39.524Z,101997.97
2022-11-29T15:56:18.150Z,101992.56
2022-11-29T15:58:50.782Z,102004.66
2022-11-29T16:01:24.246Z,102009.81
2022-11-29T16:03:59.375Z,102001.94
2022-11-29T16:06:36.395Z,102004.66
2022-11-29T16:09:07.112Z,102002.16
2022-11-29T16:11:46.411Z,102001.22
2022-11-29T16:14:20.561Z,102000.50
2022-11-29T16:16:52.594Z,102002.22
2022-11-29T16:19:32.097Z,101999.41
2022-11-29T16:22:11.846Z,102000.88
2022-11-29T16:24:43.198Z,102011.34
2022-11-29T16:27:16.939Z,102009.53
2022-11-29T16:29:48.297Z,102004.94
2022-11-29T16:32:30.503Z,102015.31
2022-11-29T16:35:08.252Z,102011.81
2022-11-29T16:37:43.464Z,102014.53
2022-11-29T16:40:25.158Z,102014.25
2022-11-29T16:43:25.421Z,102015.88
2022-11-29T16:46:34.026Z,102019.09
2022-11-29T16:49:06.179Z,102019.03
2022-11-29T16:51:42.503Z,102022.72
2022-11-29T16:54:24.642Z,102009.72
2022-11-29T16:56:56.131Z,102016.78
2022-11-29T16:59:30.185Z,102018.78
2022-11-29T17:02:00.322Z,102020.69
2022-11-29T17:04:30.241Z,102023.47
2022-11-29T17:07:00.380Z,102030.50
2022-11-29T17:09:34.603Z,102031.53
2022-11-29T17:12:06.324Z,102033.97
2022-11-29T17:14:38.922Z,102029.56
2022-11-29T17:17:09.139Z,102038.31
2022-11-29T17:19:38.881Z,102038.13
2022-11-29T17:22:08.582Z,102034.69
2022-11-29T17:24:43.557Z,102032.91
2022-11-29T17:27:17.308Z,102035.59
2022-11-29T17:29:52.403Z,102034.88
2022-11-29T17:32:26.536Z,102040.41
2022-11-29T17:34:56.784Z,102040.78
2022-11-29T17:37:26.516Z,102045.19
2022-11-29T17:39:56.732Z,102043.56
2022-11-29T17:42:26.728Z,102049.63
2022-11-29T17:44:59.027Z,102058.03
2022-11-29T17:47:28.711Z,102055.13
2022-11-29T17:49:58.444Z,102065.44
2022-11-29T17:52:28.147Z,102071.22
2022-11-29T17:54:57.812Z,102062.34
2022-11-29T17:57:27.471Z,102069.50
2022-11-29T17:59:59.791Z,102067.00
2022-11-29T18:02:29.516Z,102073.13
2022-11-29T18:04:59.225Z,102073.75
2022-11-29T18:07:29.017Z,102071.06
2022-11-29T18:09:58.782Z,102077.91
2022-11-29T18:12:28.466Z,102082.25
2022-11-29T18:15:00.767Z,102101.59
2022-11-29T18:17:30.416Z,102084.97
2022-11-29T18:20:00.078Z,102092.94
2022-11-29T18:22:29.993Z,102086.78
2022-11-29T18:25:30.085Z,102088.59
2022-11-29T18:27:49.750Z,102093.84
2022-11-29T18:30:22.287Z,102096.47
2022-11-29T18:32:52.279Z,102098.19
2022-11-29T18:35:22.259Z,102102.72
2022-11-29T18:38:13.964Z,102108.84
2022-11-29T18:40:41.897Z,102110.56
2022-11-29T18:43:11.680Z,102109.94
2022-11-29T18:45:44.052Z,102112.56
2022-11-29T18:48:13.771Z,102112.56
2022-11-29T18:50:44.021Z,102119.53
2022-11-29T18:53:13.810Z,102124.59
2022-11-29T18:55:43.608Z,102123.59
2022-11-29T18:58:13.410Z,102132.28
2022-11-29T19:00:45.756Z,102133.72
2022-11-29T19:03:15.605Z,102140.38
2022-11-29T19:05:53.378Z,102146.44
2022-11-29T19:08:23.115Z,102146.66
2022-11-29T19:10:52.818Z,102152.06
2022-11-29T19:13:22.552Z,102144.28
2022-11-29T19:15:58.018Z,102145.41
2022-11-29T19:18:27.812Z,102149.09
2022-11-29T19:20:57.531Z,102143.84
2022-11-29T19:23:27.240Z,102145.69
2022-11-29T19:25:57.092Z,102138.72
2022-11-29T19:28:26.798Z,102152.84
2022-11-29T19:30:59.631Z,102149.41
2022-11-29T19:33:29.375Z,102153.91
2022-11-29T19:35:59.065Z,102161.97
2022-11-29T19:38:28.890Z,102161.47
2022-11-29T19:40:58.566Z,102167.91
2022-11-29T19:43:28.247Z,102168.88
2022-11-29T19:46:00.666Z,102165.47
2022-11-29T19:48:30.475Z,102159.22
2022-11-29T19:51:02.655Z,102162.56
2022-11-29T19:53:32.712Z,102165.06
2022-11-29T19:56:02.615Z,102166.72
2022-11-29T19:58:32.293Z,102168.41
2022-11-29T20:01:09.852Z,102175.38
2022-11-29T20:03:39.853Z,102172.56
2022-11-29T20:06:10.999Z,102165.53
2022-11-29T20:08:40.891Z,102165.53
2022-11-29T20:11:12.113Z,102171.69
2022-11-29T20:13:43.010Z,102167.94
2022-11-29T20:16:18.352Z,102168.75
2022-11-29T20:18:51.310Z,102171.50
2022-11-29T20:21:23.392Z,102171.69
2022-11-29T20:23:58.121Z,102173.59
2022-11-29T20:26:28.724Z,102173.59
2022-11-29T20:28:58.548Z,102171.75
2022-11-29T20:31:31.782Z,102187.41
2022-11-29T20:34:01.943Z,102189.16
2022-11-29T20:36:42.891Z,102180.03
2022-11-29T20:39:23.762Z,102179.97
2022-11-29T20:42:10.511Z,102184.09
2022-11-29T20:44:42.896Z,102188.56
2022-11-29T20:47:20.264Z,102179.06
2022-11-29T20:49:50.272Z,102179.06
2022-11-29T20:52:35.283Z,102173.09
2022-11-29T20:55:05.022Z,102183.78
2022-11-29T20:57:34.978Z,102179.53
2022-11-29T21:00:05.145Z,102180.56
2022-11-29T21:02:37.516Z,102178.00
2022-11-29T21:05:09.099Z,102183.38
2022-11-29T21:07:39.017Z,102188.44
2022-11-29T21:10:10.446Z,102187.41
2022-11-29T21:12:40.616Z,102188.50
2022-11-29T21:15:12.320Z,102193.13
2022-11-29T21:17:46.155Z,102192.44
2022-11-29T21:20:21.729Z,102185.44
2022-11-29T21:23:17.054Z,102183.72
2022-11-29T21:25:56.063Z,102187.19
2022-11-29T21:28:31.058Z,102189.88
2022-11-29T21:31:01.706Z,102187.47
2022-11-29T21:33:34.999Z,102189.25
2022-11-29T21:36:06.285Z,102197.13
2022-11-29T21:38:36.480Z,102198.94
2022-11-29T21:41:06.362Z,102193.69
2022-11-29T21:44:04.920Z,102203.47
2022-11-29T21:46:26.008Z,102198.31
2022-11-29T21:49:01.655Z,102203.75
2022-11-29T21:51:31.539Z,102203.94
2022-11-29T21:54:01.377Z,102210.28
2022-11-29T21:56:31.156Z,102211.38
2022-11-29T21:59:01.022Z,102213.38
2022-11-29T22:01:33.901Z,102207.31
2022-11-29T22:04:06.787Z,102213.69
2022-11-29T22:06:36.969Z,102217.19
2022-11-29T22:09:10.776Z,102214.75
2022-11-29T22:11:40.497Z,102212.13
2022-11-29T22:14:18.520Z,102201.63
2022-11-29T22:16:50.286Z,102204.34
2022-11-29T22:19:24.444Z,102201.81
2022-11-29T22:21:56.526Z,102212.31
2022-11-29T22:24:28.292Z,102202.44
2022-11-29T22:26:58.515Z,102201.34
2022-11-29T22:29:28.609Z,102201.88
2022-11-29T22:32:01.277Z,102209.75
2022-11-29T22:34:33.620Z,102217.63
2022-11-29T22:37:06.227Z,102211.59
2022-11-29T22:39:36.058Z,102216.84
2022-11-29T22:42:05.907Z,102212.50
2022-11-29T22:44:35.810Z,102220.53
2022-11-29T22:47:05.651Z,102226.69
2022-11-29T22:49:38.123Z,102227.69
2022-11-29T22:52:08.404Z,102221.72
2022-11-29T22:54:38.305Z,102224.34
2022-11-29T22:57:08.081Z,102219.00
2022-11-29T22:59:37.848Z,102223.28
2022-11-29T23:02:07.657Z,102217.91
2022-11-29T23:04:40.310Z,102214.41
2022-11-29T23:07:10.059Z,102223.16
2022-11-29T23:09:39.824Z,102229.31
2022-11-29T23:12:10.137Z,102221.38
2022-11-29T23:14:40.045Z,102229.31
2022-11-29T23:17:09.845Z,102230.94
2022-11-29T23:19:42.273Z,102233.50
2022-11-29T23:22:11.968Z,102236.91
2022-11-29T23:24:42.955Z,102242.09
2022-11-29T23:27:12.831Z,102229.69
2022-11-29T23:29:42.648Z,102227.66
2022-11-29T23:32:12.516Z,102216.97
2022-11-29T23:34:45.291Z,102223.75
2022-11-29T23:37:15.419Z,102226.91
2022-11-29T23:39:45.155Z,102237.09
2022-11-29T23:42:14.933Z,102230.59
2022-11-29T23:44:45.212Z,102228.50
2022-11-29T23:47:15.572Z,102230.13
2022-11-29T23:49:48.409Z,102227.78
2022-11-29T23:52:18.806Z,102225.88
2022-11-29T23:54:48.844Z,102235.19
2022-11-29T23:57:18.868Z,102234.16
2022-11-29T23:59:50.342Z,102246.31
